createdAt,value
2022-08-16T00:01:28.929Z,23.20
2022-08-16T00:04:00.904Z,23.20
2022-08-16T00:06:29.683Z,23.20
2022-08-16T00:08:56.718Z,23.20
2022-08-16T00:11:23.844Z,23.10
2022-08-16T00:13:53.604Z,23.10
2022-08-16T00:17:01.676Z,23.10
2022-08-16T00:19:24.010Z,23.10
2022-08-16T00:22:01.447Z,23.10
2022-08-16T00:24:32.486Z,23.00
2022-08-16T00:27:03.205Z,23.00
2022-08-16T00:29:31.341Z,23.00
2022-08-16T00:32:05.539Z,23.00
2022-08-16T00:34:44.920Z,23.00
2022-08-16T00:37:25.059Z,23.00
2022-08-16T00:40:34.143Z,23.00
2022-08-16T00:43:11.926Z,22.90
2022-08-16T00:46:34.831Z,22.90
2022-08-16T00:49:17.719Z,22.90
2022-08-16T00:51:53.735Z,22.90
2022-08-16T00:54:28.885Z,22.80
2022-08-16T00:56:59.795Z,22.80
2022-08-16T00:59:32.947Z,22.80
2022-08-16T01:02:30.993Z,22.80
2022-08-16T01:05:09.428Z,22.80
2022-08-16T01:07:51.417Z,22.80
2022-08-16T01:10:32.122Z,22.80
2022-08-16T01:13:08.240Z,22.80
2022-08-16T01:15:44.337Z,22.80
2022-08-16T01:18:19.338Z,22.80
2022-08-16T01:21:33.662Z,22.80
2022-08-16T01:24:52.890Z,22.70
2022-08-16T01:27:34.451Z,22.70
2022-08-16T01:30:19.488Z,22.70
2022-08-16T01:33:02.904Z,22.60
2022-08-16T01:36:02.540Z,22.60
2022-08-16T01:38:48.988Z,22.60
2022-08-16T01:41:26.656Z,22.50
2022-08-16T01:44:00.931Z,22.50
2022-08-16T01:46:39.648Z,22.50
2022-08-16T01:49:45.841Z,22.50
2022-08-16T01:52:30.258Z,22.50
2022-08-16T01:55:19.156Z,22.50
2022-08-16T01:57:53.206Z,22.40
2022-08-16T02:00:29.157Z,22.40
2022-08-16T02:02:59.135Z,22.40
2022-08-16T02:05:30.432Z,22.40
2022-08-16T02:08:03.006Z,22.40
2022-08-16T02:10:31.633Z,22.40
2022-08-16T02:13:02.662Z,22.40
2022-08-16T02:15:35.454Z,22.40
2022-08-16T02:18:12.814Z,22.30
2022-08-16T02:20:45.440Z,22.30
2022-08-16T02:23:14.348Z,22.30
2022-08-16T02:25:50.830Z,22.30
2022-08-16T02:28:23.752Z,22.30
2022-08-16T02:30:53.215Z,22.30
2022-08-16T02:33:24.828Z,22.30
2022-08-16T02:36:14.251Z,22.30
2022-08-16T02:38:42.515Z,22.20
2022-08-16T02:41:12.114Z,22.20
2022-08-16T02:43:41.256Z,22.20
2022-08-16T02:46:09.961Z,22.20
2022-08-16T02:48:39.727Z,22.20
2022-08-16T02:51:17.398Z,22.20
2022-08-16T02:53:48.529Z,22.20
2022-08-16T02:56:18.377Z,22.10
2022-08-16T02:58:49.283Z,22.10
2022-08-16T03:01:25.171Z,22.10
2022-08-16T03:04:40.912Z,22.10
2022-08-16T03:06:56.771Z,22.10
2022-08-16T03:09:36.548Z,22.00
2022-08-16T03:12:05.453Z,22.00
2022-08-16T03:14:34.111Z,22.00
2022-08-16T03:17:03.981Z,22.00
2022-08-16T03:19:47.307Z,22.00
2022-08-16T03:22:18.916Z,22.00
2022-08-16T03:24:47.315Z,22.00
2022-08-16T03:27:14.797Z,22.00
2022-08-16T03:29:42.829Z,21.90
2022-08-16T03:32:22.350Z,21.90
2022-08-16T03:34:49.934Z,21.90
2022-08-16T03:37:18.389Z,21.90
2022-08-16T03:39:47.004Z,21.90
2022-08-16T03:42:20.272Z,21.90
2022-08-16T03:44:50.372Z,21.90
2022-08-16T03:47:20.159Z,21.90
2022-08-16T03:49:51.887Z,21.90
2022-08-16T03:52:23.382Z,21.90
2022-08-16T03:54:58.065Z,21.90
2022-08-16T03:57:32.045Z,21.80
2022-08-16T04:00:35.349Z,21.80
2022-08-16T04:03:08.657Z,21.80
2022-08-16T04:05:50.872Z,21.80
2022-08-16T04:08:22.903Z,21.80
2022-08-16T04:10:57.987Z,21.80
2022-08-16T04:14:00.062Z,21.70
2022-08-16T04:16:26.708Z,21.70
2022-08-16T04:19:02.726Z,21.70
2022-08-16T04:21:35.247Z,21.60
2022-08-16T04:24:03.925Z,21.60
2022-08-16T04:26:36.233Z,21.60
2022-08-16T04:29:16.334Z,21.60
2022-08-16T04:31:56.422Z,21.60
2022-08-16T04:34:33.476Z,21.60
2022-08-16T04:37:02.315Z,21.60
2022-08-16T04:39:46.198Z,21.60
2022-08-16T04:42:25.900Z,21.60
2022-08-16T04:44:55.896Z,21.60
2022-08-16T04:47:35.518Z,21.60
2022-08-16T04:50:11.572Z,21.60
2022-08-16T04:52:58.079Z,21.60
2022-08-16T04:55:31.995Z,21.70
2022-08-16T04:58:45.622Z,21.70
2022-08-16T05:00:58.304Z,21.70
2022-08-16T05:03:27.104Z,21.70
2022-08-16T05:05:59.998Z,21.70
2022-08-16T05:08:32.943Z,21.70
2022-08-16T05:11:17.168Z,21.80
2022-08-16T05:13:47.565Z,21.80
2022-08-16T05:16:30.028Z,21.90
2022-08-16T05:19:11.815Z,21.90
2022-08-16T05:21:56.854Z,21.90
2022-08-16T05:24:26.849Z,22.00
2022-08-16T05:26:55.529Z,22.00
2022-08-16T05:29:24.877Z,22.00
2022-08-16T05:32:32.299Z,22.10
2022-08-16T05:35:07.716Z,22.10
2022-08-16T05:37:42.474Z,22.20
2022-08-16T05:40:14.032Z,22.20
2022-08-16T05:42:47.840Z,22.30
2022-08-16T05:45:21.413Z,22.30
2022-08-16T05:47:59.565Z,22.40
2022-08-16T05:50:33.966Z,22.50
2022-08-16T05:53:01.905Z,22.60
2022-08-16T05:55:30.006Z,22.60
2022-08-16T05:57:57.779Z,22.70
2022-08-16T06:00:25.481Z,22.80
2022-08-16T06:02:57.482Z,22.90
2022-08-16T06:05:48.439Z,22.90
2022-08-16T06:08:31.782Z,23.00
2022-08-16T06:11:05.656Z,23.00
2022-08-16T06:13:42.016Z,23.10
2022-08-16T06:16:18.028Z,23.10
2022-08-16T06:18:49.337Z,23.20
2022-08-16T06:21:22.935Z,23.30
2022-08-16T06:24:01.229Z,23.30
2022-08-16T06:26:36.770Z,23.40
2022-08-16T06:29:08.364Z,23.40
2022-08-16T06:31:48.935Z,23.50
2022-08-16T06:34:55.402Z,23.60
2022-08-16T06:37:08.421Z,23.60
2022-08-16T06:39:49.465Z,23.70
2022-08-16T06:42:24.570Z,23.80
2022-08-16T06:45:24.596Z,23.90
2022-08-16T06:48:12.618Z,24.00
2022-08-16T06:50:48.175Z,24.10
2022-08-16T06:53:16.075Z,24.20
2022-08-16T06:56:14.633Z,24.20
2022-08-16T06:59:09.074Z,24.40
2022-08-16T07:01:54.151Z,24.60
2022-08-16T07:04:28.176Z,24.80
2022-08-16T07:07:04.110Z,25.00
2022-08-16T07:09:31.680Z,25.20
2022-08-16T07:12:03.492Z,25.40
2022-08-16T07:14:35.211Z,25.60
2022-08-16T07:17:08.277Z,25.80
2022-08-16T07:20:29.940Z,26.10
2022-08-16T07:22:39.747Z,26.40
2022-08-16T07:25:18.857Z,26.70
2022-08-16T07:27:50.433Z,26.90
2022-08-16T07:30:39.618Z,27.20
2022-08-16T07:33:10.787Z,27.40
2022-08-16T07:35:49.563Z,27.60
2022-08-16T07:38:19.967Z,27.70
2022-08-16T07:41:01.217Z,27.90
2022-08-16T07:43:32.803Z,28.00
2022-08-16T07:46:03.727Z,28.10
2022-08-16T07:48:35.439Z,28.10
2022-08-16T07:51:08.864Z,28.00
2022-08-16T07:53:43.694Z,28.00
2022-08-16T07:56:14.269Z,27.90
2022-08-16T07:58:42.283Z,27.90
2022-08-16T08:01:16.569Z,27.80
2022-08-16T08:03:54.936Z,27.80
2022-08-16T08:06:29.639Z,27.90
2022-08-16T08:09:03.940Z,28.00
2022-08-16T08:11:33.449Z,28.20
2022-08-16T08:14:07.537Z,28.40
2022-08-16T08:16:45.273Z,28.60
2022-08-16T08:19:20.999Z,28.80
2022-08-16T08:22:00.912Z,29.10
2022-08-16T08:24:39.894Z,29.30
2022-08-16T08:27:11.823Z,29.20
2022-08-16T08:29:42.611Z,29.10
2022-08-16T08:32:51.221Z,28.90
2022-08-16T08:35:06.232Z,28.70
2022-08-16T08:37:55.611Z,28.50
2022-08-16T08:40:29.159Z,28.30
2022-08-16T08:43:11.814Z,28.10
2022-08-16T08:45:48.032Z,27.90
2022-08-16T08:48:34.190Z,27.70
2022-08-16T08:51:11.144Z,27.60
2022-08-16T08:54:09.473Z,27.50
2022-08-16T08:56:45.534Z,27.40
2022-08-16T08:59:33.661Z,27.40
2022-08-16T09:02:03.931Z,27.30
2022-08-16T09:04:35.463Z,27.30
2022-08-16T09:07:05.672Z,27.20
2022-08-16T09:09:40.914Z,27.20
2022-08-16T09:12:36.203Z,27.20
2022-08-16T09:15:09.110Z,27.10
2022-08-16T09:17:51.716Z,27.10
2022-08-16T09:20:29.419Z,27.10
2022-08-16T09:22:59.598Z,27.20
2022-08-16T09:25:34.482Z,27.20
2022-08-16T09:29:13.643Z,27.20
2022-08-16T09:31:17.932Z,27.20
2022-08-16T09:33:45.727Z,27.20
2022-08-16T09:36:32.485Z,27.20
2022-08-16T09:39:02.219Z,27.30
2022-08-16T09:41:30.018Z,27.20
2022-08-16T09:44:02.533Z,27.30
2022-08-16T09:46:49.357Z,27.30
2022-08-16T09:49:20.032Z,27.30
2022-08-16T09:51:53.310Z,27.40
2022-08-16T09:54:32.165Z,27.40
2022-08-16T09:56:59.957Z,27.40
2022-08-16T09:59:30.772Z,27.50
2022-08-16T10:02:04.028Z,27.50
2022-08-16T10:04:54.588Z,27.50
2022-08-16T10:07:23.779Z,27.50
2022-08-16T10:09:54.834Z,27.60
2022-08-16T10:12:55.870Z,27.60
2022-08-16T10:15:30.186Z,27.70
2022-08-16T10:18:00.621Z,27.70
2022-08-16T10:20:37.831Z,27.70
2022-08-16T10:23:09.909Z,27.70
2022-08-16T10:27:18.015Z,27.70
2022-08-16T10:28:39.755Z,27.80
2022-08-16T10:31:11.980Z,27.80
2022-08-16T10:33:45.054Z,27.80
2022-08-16T10:36:38.758Z,27.90
2022-08-16T10:39:02.419Z,27.90
2022-08-16T10:41:32.439Z,27.90
2022-08-16T10:44:00.371Z,28.00
2022-08-16T10:46:39.279Z,28.00
2022-08-16T10:49:10.487Z,28.00
2022-08-16T10:52:01.660Z,28.00
2022-08-16T10:54:29.414Z,28.10
2022-08-16T10:57:00.461Z,28.10
2022-08-16T10:59:39.064Z,28.10
2022-08-16T11:02:58.248Z,28.10
2022-08-16T11:05:12.445Z,28.10
2022-08-16T11:08:05.431Z,28.20
2022-08-16T11:19:12.412Z,28.30
2022-08-16T11:24:39.470Z,28.40
2022-08-16T11:27:32.542Z,28.40
2022-08-16T11:29:57.684Z,28.40
2022-08-16T11:32:32.379Z,28.50
2022-08-16T11:35:13.982Z,28.60
2022-08-16T11:38:06.108Z,28.60
2022-08-16T11:40:56.830Z,28.60
2022-08-16T11:43:32.553Z,28.70
2022-08-16T11:46:43.549Z,28.70
2022-08-16T11:48:53.054Z,28.70
2022-08-16T11:51:20.167Z,28.80
2022-08-16T11:53:47.365Z,28.80
2022-08-16T11:56:16.992Z,28.80
2022-08-16T11:58:57.065Z,28.90
2022-08-16T12:01:29.638Z,28.90
2022-08-16T12:04:13.356Z,28.90
2022-08-16T12:06:41.438Z,29.00
2022-08-16T12:09:09.194Z,29.00
2022-08-16T12:11:38.021Z,29.00
2022-08-16T12:14:07.726Z,29.00
2022-08-16T12:16:36.958Z,29.00
2022-08-16T12:19:10.705Z,29.00
2022-08-16T12:21:58.297Z,29.10
2022-08-16T12:24:27.390Z,29.10
2022-08-16T12:26:55.492Z,29.20
2022-08-16T12:29:22.857Z,29.20
2022-08-16T12:31:59.076Z,29.20
2022-08-16T12:34:29.642Z,29.20
2022-08-16T12:36:58.365Z,29.20
2022-08-16T12:39:29.006Z,29.20
2022-08-16T12:41:57.677Z,29.20
2022-08-16T12:44:26.368Z,29.20
2022-08-16T12:47:18.198Z,29.20
2022-08-16T12:49:45.477Z,29.20
2022-08-16T12:52:32.789Z,29.20
2022-08-16T12:55:01.977Z,29.10
2022-08-16T12:57:36.776Z,29.10
2022-08-16T13:00:26.263Z,29.10
2022-08-16T13:02:54.640Z,29.10
2022-08-16T13:05:21.993Z,29.10
2022-08-16T13:07:51.340Z,29.10
2022-08-16T13:10:37.752Z,29.10
2022-08-16T13:13:09.198Z,29.10
2022-08-16T13:15:51.533Z,29.10
2022-08-16T13:18:33.628Z,29.10
2022-08-16T13:21:05.866Z,29.20
2022-08-16T13:23:35.672Z,29.20
2022-08-16T13:26:05.298Z,29.30
2022-08-16T13:28:35.463Z,29.40
2022-08-16T13:31:08.107Z,29.40
2022-08-16T13:33:37.156Z,29.50
2022-08-16T13:36:17.196Z,29.50
2022-08-16T13:38:59.680Z,29.50
2022-08-16T13:41:30.158Z,29.50
2022-08-16T13:44:00.517Z,29.50
2022-08-16T13:46:30.274Z,29.50
2022-08-16T13:48:58.499Z,29.50
2022-08-16T13:51:29.274Z,29.50
2022-08-16T13:54:03.928Z,29.60
2022-08-16T13:56:39.413Z,29.60
2022-08-16T13:59:14.207Z,29.60
2022-08-16T14:01:59.674Z,29.60
2022-08-16T14:04:31.644Z,29.60
2022-08-16T14:07:01.416Z,29.60
2022-08-16T14:09:32.082Z,29.60
2022-08-16T14:12:09.874Z,29.60
2022-08-16T14:14:46.022Z,29.60
2022-08-16T14:17:14.550Z,29.60
2022-08-16T14:19:46.118Z,29.60
2022-08-16T14:22:39.980Z,29.60
2022-08-16T14:25:20.558Z,29.60
2022-08-16T14:27:54.377Z,29.60
2022-08-16T14:30:22.968Z,29.60
2022-08-16T14:32:51.762Z,29.60
2022-08-16T14:35:48.280Z,29.60
2022-08-16T14:38:18.527Z,29.60
2022-08-16T14:40:52.846Z,29.60
2022-08-16T14:43:26.073Z,29.70
2022-08-16T14:45:57.082Z,29.70
2022-08-16T14:48:26.191Z,29.70
2022-08-16T14:50:55.344Z,29.70
2022-08-16T14:53:23.881Z,29.60
2022-08-16T14:55:54.242Z,29.60
2022-08-16T14:58:34.976Z,29.60
2022-08-16T15:01:06.077Z,29.60
2022-08-16T15:03:37.787Z,29.60
2022-08-16T15:06:05.642Z,29.60
2022-08-16T15:08:36.628Z,29.60
2022-08-16T15:11:07.657Z,29.70
2022-08-16T15:13:35.870Z,29.70
2022-08-16T15:16:04.383Z,29.60
2022-08-16T15:18:33.467Z,29.70
2022-08-16T15:21:04.080Z,29.70
2022-08-16T15:23:34.099Z,29.70
2022-08-16T15:26:04.205Z,29.70
2022-08-16T15:28:38.321Z,29.70
2022-08-16T15:31:09.662Z,29.70
2022-08-16T15:33:49.965Z,29.70
2022-08-16T15:36:21.391Z,29.70
2022-08-16T15:38:56.332Z,29.70
2022-08-16T15:41:42.745Z,29.70
2022-08-16T15:44:24.955Z,29.70
2022-08-16T15:47:02.421Z,29.60
2022-08-16T15:49:34.709Z,29.60
2022-08-16T15:52:18.318Z,29.70
2022-08-16T15:54:53.679Z,29.70
2022-08-16T15:57:25.719Z,29.70
2022-08-16T15:59:56.044Z,29.60
2022-08-16T16:02:30.892Z,29.60
2022-08-16T16:05:07.344Z,29.60
2022-08-16T16:07:40.878Z,29.60
2022-08-16T16:10:29.734Z,29.60
2022-08-16T16:13:00.837Z,29.60
2022-08-16T16:15:36.272Z,29.60
2022-08-16T16:18:09.049Z,29.60
2022-08-16T16:20:48.808Z,29.60
2022-08-16T16:23:27.833Z,29.50
2022-08-16T16:25:58.069Z,29.50
2022-08-16T16:28:51.177Z,29.50
2022-08-16T16:31:19.516Z,29.50
2022-08-16T16:33:52.319Z,29.40
2022-08-16T16:36:29.304Z,29.40
2022-08-16T16:38:57.398Z,29.40
2022-08-16T16:41:28.272Z,29.40
2022-08-16T16:43:59.626Z,29.40
2022-08-16T16:46:42.922Z,29.40
2022-08-16T16:49:14.812Z,29.40
2022-08-16T16:51:44.963Z,29.40
2022-08-16T16:54:27.722Z,29.30
2022-08-16T16:56:58.848Z,29.30
2022-08-16T16:59:28.005Z,29.30
2022-08-16T17:02:39.411Z,29.20
2022-08-16T17:04:50.203Z,29.20
2022-08-16T17:07:18.037Z,29.20
2022-08-16T17:09:52.513Z,29.20
2022-08-16T17:12:24.715Z,29.20
2022-08-16T17:15:09.372Z,29.10
2022-08-16T17:17:59.045Z,29.10
2022-08-16T17:20:25.294Z,29.10
2022-08-16T17:22:55.998Z,29.00
2022-08-16T17:25:36.397Z,29.00
2022-08-16T17:28:57.589Z,29.00
2022-08-16T17:31:00.754Z,29.00
2022-08-16T17:33:36.871Z,29.00
2022-08-16T17:36:08.561Z,28.90
2022-08-16T17:38:44.109Z,28.90
2022-08-16T17:41:15.845Z,28.90
2022-08-16T17:43:45.431Z,28.80
2022-08-16T17:46:41.148Z,28.80
2022-08-16T17:49:10.739Z,28.70
2022-08-16T17:51:46.247Z,28.70
2022-08-16T17:54:20.421Z,28.60
2022-08-16T17:57:00.495Z,28.50
2022-08-16T17:59:30.587Z,28.50
2022-08-16T18:01:59.258Z,28.40
2022-08-16T18:04:49.809Z,28.40
2022-08-16T18:07:21.812Z,28.30
2022-08-16T18:09:54.672Z,28.20
2022-08-16T18:12:44.433Z,28.10
2022-08-16T18:15:18.825Z,28.10
2022-08-16T18:17:50.255Z,28.00
2022-08-16T18:20:46.188Z,28.00
2022-08-16T18:23:27.149Z,27.80
2022-08-16T18:26:00.481Z,27.80
2022-08-16T18:28:30.902Z,27.70
2022-08-16T18:31:01.569Z,27.60
2022-08-16T18:33:43.126Z,27.60
2022-08-16T18:36:20.872Z,27.50
2022-08-16T18:38:50.992Z,27.50
2022-08-16T18:41:21.593Z,27.40
2022-08-16T18:44:23.828Z,27.40
2022-08-16T18:46:43.283Z,27.30
2022-08-16T18:49:13.239Z,27.30
2022-08-16T18:51:47.199Z,27.20
2022-08-16T18:54:20.058Z,27.20
2022-08-16T18:56:56.227Z,27.20
2022-08-16T18:59:28.147Z,27.10
2022-08-16T19:02:00.049Z,27.00
2022-08-16T19:04:56.054Z,27.00
2022-08-16T19:07:29.570Z,26.90
2022-08-16T19:10:01.022Z,26.80
2022-08-16T19:12:38.003Z,26.80
2022-08-16T19:15:16.181Z,26.70
2022-08-16T19:17:45.403Z,26.70
2022-08-16T19:20:20.633Z,26.60
2022-08-16T19:23:06.248Z,26.60
2022-08-16T19:25:47.268Z,26.50
2022-08-16T19:28:50.093Z,26.50
2022-08-16T19:31:27.992Z,26.40
2022-08-16T19:33:59.310Z,26.40
2022-08-16T19:36:36.748Z,26.40
2022-08-16T19:39:10.443Z,26.30
2022-08-16T19:41:45.323Z,26.30
2022-08-16T19:44:13.435Z,26.20
2022-08-16T19:46:46.610Z,26.20
2022-08-16T19:49:15.771Z,26.20
2022-08-16T19:51:47.905Z,26.10
2022-08-16T19:54:16.134Z,26.10
2022-08-16T19:56:43.389Z,26.10
2022-08-16T19:59:20.670Z,26.00
2022-08-16T20:01:52.068Z,26.00
2022-08-16T20:04:21.742Z,25.90
2022-08-16T20:06:50.615Z,25.90
2022-08-16T20:09:21.852Z,25.90
2022-08-16T20:11:52.381Z,25.80
2022-08-16T20:14:25.360Z,25.80
2022-08-16T20:16:56.286Z,25.70
2022-08-16T20:19:25.084Z,25.70
2022-08-16T20:21:52.657Z,25.70
2022-08-16T20:24:33.976Z,25.70
2022-08-16T20:27:06.279Z,25.60
2022-08-16T20:29:34.923Z,25.60
2022-08-16T20:32:05.205Z,25.50
2022-08-16T20:34:32.501Z,25.50
2022-08-16T20:36:59.896Z,25.50
2022-08-16T20:39:28.050Z,25.40
2022-08-16T20:41:55.278Z,25.40
2022-08-16T20:44:22.976Z,25.40
2022-08-16T20:46:52.882Z,25.30
2022-08-16T20:49:20.056Z,25.30
2022-08-16T20:51:51.655Z,25.30
2022-08-16T20:54:22.421Z,25.30
2022-08-16T20:56:50.179Z,25.30
2022-08-16T20:59:17.745Z,25.20
2022-08-16T21:01:46.378Z,25.20
2022-08-16T21:04:22.972Z,25.20
2022-08-16T21:06:53.829Z,25.10
2022-08-16T21:09:32.643Z,25.10
2022-08-16T21:12:06.275Z,25.00
2022-08-16T21:14:34.341Z,25.00
2022-08-16T21:17:08.438Z,25.00
2022-08-16T21:19:36.809Z,24.90
2022-08-16T21:22:16.960Z,24.90
2022-08-16T21:24:46.340Z,24.90
2022-08-16T21:27:15.706Z,24.80
2022-08-16T21:29:48.536Z,24.80
2022-08-16T21:32:35.174Z,24.80
2022-08-16T21:35:10.481Z,24.80
2022-08-16T21:37:38.432Z,24.80
2022-08-16T21:40:09.059Z,24.70
2022-08-16T21:42:39.819Z,24.70
2022-08-16T21:45:10.854Z,24.70
2022-08-16T21:47:37.940Z,24.60
2022-08-16T21:50:05.927Z,24.60
2022-08-16T21:52:32.983Z,24.60
2022-08-16T21:55:00.322Z,24.60
2022-08-16T21:57:27.878Z,24.60
2022-08-16T22:00:10.672Z,24.60
2022-08-16T22:02:38.807Z,24.60
2022-08-16T22:05:07.135Z,24.50
2022-08-16T22:07:34.719Z,24.50
2022-08-16T22:11:00.358Z,24.40
2022-08-16T22:12:50.368Z,24.40
2022-08-16T22:15:25.646Z,24.40
2022-08-16T22:17:56.222Z,24.40
2022-08-16T22:20:25.480Z,24.40
2022-08-16T22:22:52.690Z,24.30
2022-08-16T22:25:19.843Z,24.30
2022-08-16T22:27:47.186Z,24.30
2022-08-16T22:30:14.972Z,24.30
2022-08-16T22:32:44.678Z,24.30
2022-08-16T22:35:14.302Z,24.30
2022-08-16T22:38:52.864Z,24.30
2022-08-16T22:40:29.416Z,24.20
2022-08-16T22:42:56.544Z,24.20
2022-08-16T22:45:23.895Z,24.20
2022-08-16T22:47:51.032Z,24.20
2022-08-16T22:50:18.567Z,24.20
2022-08-16T22:52:55.928Z,24.20
2022-08-16T22:55:26.171Z,24.10
2022-08-16T22:57:54.555Z,24.10
2022-08-16T23:00:25.540Z,24.10
2022-08-16T23:03:11.588Z,24.10
2022-08-16T23:05:53.448Z,24.10
2022-08-16T23:08:38.234Z,24.10
2022-08-16T23:11:14.612Z,24.10
2022-08-16T23:13:50.052Z,24.10
2022-08-16T23:16:32.333Z,24.00
2022-08-16T23:19:03.812Z,24.00
2022-08-16T23:21:32.651Z,24.00
2022-08-16T23:24:00.141Z,24.00
2022-08-16T23:26:46.030Z,23.90
2022-08-16T23:29:23.398Z,23.90
2022-08-16T23:31:57.168Z,23.90
2022-08-16T23:34:27.135Z,23.90
2022-08-16T23:36:55.396Z,23.90
2022-08-16T23:39:22.703Z,23.90
2022-08-16T23:41:49.985Z,23.80
2022-08-16T23:44:56.779Z,23.80
2022-08-16T23:47:06.132Z,23.80
2022-08-16T23:49:57.856Z,23.70
2022-08-16T23:52:39.398Z,23.70
2022-08-16T23:55:09.202Z,23.70
2022-08-16T23:57:36.428Z,23.70
